Time;durP1;ratioP1;P1;durP2;ratioP2;P2;SDS_P1;SDS_P2;PMS_P1;PMS_P2;Temp;Humidity;BMP_temperature;BMP_pressure;BME280_temperature;BME280_humidity;BME280_pressure;Samples;Min_cycle;Max_cycle;Signal;HPM_P1;HPM_P2
2023/02/16 00:00:44;;;;;;;43.33;23.15;;;4.10;99.90;;;;;;4995203;28;20068;-72
2023/02/16 00:03:16;;;;;;;42.08;22.88;;;4.10;99.90;;;;;;4990532;28;20401;-72
2023/02/16 00:05:42;;;;;;;39.03;22.75;;;4.10;99.90;;;;;;4991677;28;20145;-71
2023/02/16 00:08:08;;;;;;;44.95;23.25;;;4.10;99.90;;;;;;4975334;28;20138;-72
2023/02/16 00:10:35;;;;;;;41.83;23.77;;;4.10;99.90;;;;;;4978876;28;20038;-72
2023/02/16 00:15:52;;;;;;;41.85;22.85;;;4.10;99.90;;;;;;4995489;28;20096;-72
2023/02/16 00:18:20;;;;;;;41.75;22.80;;;4.10;99.90;;;;;;4982415;28;20026;-72
2023/02/16 00:20:47;;;;;;;43.88;23.70;;;4.10;99.90;;;;;;4996129;28;20029;-73
2023/02/16 00:23:15;;;;;;;43.58;23.20;;;4.10;99.90;;;;;;4992915;28;20079;-72
2023/02/16 00:25:41;;;;;;;42.33;22.17;;;4.10;99.90;;;;;;4996007;28;20107;-71
2023/02/16 00:28:14;;;;;;;44.92;22.98;;;4.10;99.90;;;;;;4998201;28;20033;-72
2023/02/16 00:30:40;;;;;;;41.85;24.00;;;4.10;99.90;;;;;;4999769;28;20557;-70
2023/02/16 00:33:17;;;;;;;38.33;22.27;;;4.10;99.90;;;;;;4999624;28;20030;-73
2023/02/16 00:35:43;;;;;;;40.00;21.38;;;4.10;99.90;;;;;;4997496;28;20062;-72
2023/02/16 00:38:10;;;;;;;41.80;22.70;;;4.10;99.90;;;;;;5001114;28;20073;-73
2023/02/16 00:40:36;;;;;;;42.50;23.38;;;4.20;99.90;;;;;;4994615;28;20070;-72
2023/02/16 00:43:02;;;;;;;43.08;24.05;;;4.10;99.90;;;;;;4983139;28;20034;-73
2023/02/16 00:45:30;;;;;;;42.45;23.35;;;4.20;99.90;;;;;;4995809;28;20034;-72
2023/02/16 00:47:56;;;;;;;51.50;25.77;;;4.20;99.90;;;;;;4998394;28;20058;-72
2023/02/16 00:50:23;;;;;;;47.67;24.50;;;4.20;99.90;;;;;;4995026;28;20522;-72
2023/02/16 00:52:49;;;;;;;51.47;26.38;;;4.30;99.90;;;;;;4962939;28;20048;-72
2023/02/16 00:55:18;;;;;;;46.67;23.92;;;4.30;99.90;;;;;;4995362;28;20581;-73
2023/02/16 00:57:53;;;;;;;47.13;24.23;;;4.30;99.90;;;;;;4979163;28;20026;-71
2023/02/16 01:00:29;;;;;;;46.85;24.38;;;4.30;99.90;;;;;;4995873;28;20044;-73
2023/02/16 01:02:57;;;;;;;49.05;23.83;;;4.30;99.90;;;;;;4997952;28;20528;-73
2023/02/16 01:05:24;;;;;;;51.53;25.95;;;4.30;99.90;;;;;;4992018;28;20560;-71
2023/02/16 01:13:19;;;;;;;48.60;25.15;;;4.30;99.90;;;;;;4999052;28;20033;-72
2023/02/16 01:15:45;;;;;;;47.53;24.83;;;4.30;99.90;;;;;;4992633;28;20032;-72
2023/02/16 01:18:16;;;;;;;52.72;24.75;;;4.30;99.90;;;;;;4995161;28;20022;-72
2023/02/16 01:20:42;;;;;;;49.53;24.08;;;4.30;99.90;;;;;;4998519;28;20033;-71
2023/02/16 01:23:08;;;;;;;48.03;25.25;;;4.30;99.90;;;;;;4998214;28;20033;-72
2023/02/16 01:25:35;;;;;;;46.03;24.90;;;4.30;99.90;;;;;;4990596;28;20054;-73
2023/02/16 01:28:01;;;;;;;49.10;26.63;;;4.30;99.90;;;;;;4997295;28;20034;-73
2023/02/16 01:30:27;;;;;;;44.03;23.80;;;4.30;99.90;;;;;;4996604;28;20029;-72
2023/02/16 01:32:54;;;;;;;48.35;25.27;;;4.30;99.90;;;;;;4976988;28;20031;-72
2023/02/16 01:35:22;;;;;;;48.63;25.33;;;4.30;99.90;;;;;;4963220;28;20430;-72
2023/02/16 01:37:49;;;;;;;50.40;25.52;;;4.30;99.90;;;;;;4994977;28;20034;-72
2023/02/16 01:40:33;;;;;;;55.63;27.33;;;4.30;99.90;;;;;;4994162;28;20029;-73
2023/02/16 01:43:23;;;;;;;56.95;27.90;;;4.30;99.90;;;;;;4993475;28;20033;-72
2023/02/16 01:46:10;;;;;;;51.97;27.67;;;4.40;99.90;;;;;;4989448;28;20032;-72
2023/02/16 01:48:36;;;;;;;56.97;27.27;;;4.40;99.90;;;;;;4994026;28;20084;-72
2023/02/16 01:51:24;;;;;;;57.35;27.98;;;4.40;99.90;;;;;;4976507;28;20030;-73
2023/02/16 01:53:59;;;;;;;48.92;25.48;;;4.40;99.90;;;;;;4994023;28;20049;-72
2023/02/16 01:56:48;;;;;;;53.85;26.95;;;4.40;99.90;;;;;;4989337;28;20034;-71
2023/02/16 01:59:25;;;;;;;53.08;27.92;;;4.40;99.90;;;;;;4970378;28;20713;-72
2023/02/16 02:02:01;;;;;;;51.17;27.35;;;4.40;99.90;;;;;;4989541;28;20032;-71
2023/02/16 02:07:47;;;;;;;57.00;27.33;;;4.50;99.90;;;;;;4993535;28;20037;-72
2023/02/16 02:10:22;;;;;;;48.10;25.67;;;4.50;99.90;;;;;;4989706;28;20034;-70
2023/02/16 02:12:58;;;;;;;55.33;28.70;;;4.50;99.90;;;;;;4992943;28;20087;-72
2023/02/16 02:15:28;;;;;;;52.47;28.02;;;4.50;99.90;;;;;;4993313;28;20125;-72
2023/02/16 02:17:54;;;;;;;57.25;27.60;;;4.50;99.90;;;;;;4977773;28;20121;-72
2023/02/16 02:24:10;;;;;;;50.95;28.27;;;4.50;99.90;;;;;;4995586;28;20398;-73
2023/02/16 02:27:03;;;;;;;54.80;28.23;;;4.50;99.90;;;;;;4964814;28;20096;-72
2023/02/16 02:29:47;;;;;;;57.97;28.98;;;4.50;99.90;;;;;;4993423;28;20522;-73
2023/02/16 02:32:19;;;;;;;54.83;29.17;;;4.50;99.90;;;;;;4992191;28;20533;-72
2023/02/16 02:35:10;;;;;;;51.65;27.67;;;4.50;99.90;;;;;;4996083;28;20026;-73
2023/02/16 02:37:54;;;;;;;;;;;4.60;99.90;;;;;;4976527;28;20108;-73
2023/02/16 02:40:36;;;;;;;50.65;27.17;;;4.50;99.90;;;;;;4991201;28;19914;-73
2023/02/16 02:43:30;;;;;;;52.05;27.55;;;4.60;99.90;;;;;;4976234;28;20053;-72
2023/02/16 02:46:08;;;;;;;58.75;28.10;;;4.50;99.90;;;;;;4957499;28;20045;-73
2023/02/16 02:48:34;;;;;;;55.30;27.77;;;4.60;99.90;;;;;;4979066;28;20109;-72
2023/02/16 02:51:28;;;;;;;52.78;27.50;;;4.50;99.90;;;;;;4970878;28;20077;-72
2023/02/16 03:02:40;;;;;;;55.10;27.40;;;4.50;99.90;;;;;;4910685;29;20039;-73
2023/02/16 03:05:08;;;;;;;54.90;27.63;;;4.50;99.90;;;;;;4911239;29;20483;-73
2023/02/16 03:07:45;;;;;;;55.28;25.85;;;4.50;99.90;;;;;;4915611;29;20048;-73
2023/02/16 03:13:04;;;;;;;48.95;27.77;;;4.50;99.90;;;;;;4910079;29;20501;-73
2023/02/16 03:15:31;;;;;;;56.63;30.58;;;4.40;99.90;;;;;;4909003;29;20039;-73
2023/02/16 03:29:16;;;;;;;50.38;26.83;;;4.50;99.90;;;;;;4912292;29;20467;-73
2023/02/16 03:31:43;;;;;;;50.78;26.77;;;4.50;99.90;;;;;;4914572;29;20111;-73
2023/02/16 03:34:09;;;;;;;51.58;27.25;;;4.50;99.90;;;;;;4900644;29;20027;-73
2023/02/16 03:36:38;;;;;;;52.10;26.90;;;4.50;99.90;;;;;;4912561;29;20035;-73
2023/02/16 03:39:05;;;;;;;58.88;28.33;;;4.50;99.90;;;;;;4944613;28;20066;-72
2023/02/16 03:41:34;;;;;;;49.17;25.83;;;4.50;99.90;;;;;;4961118;28;20122;-73
2023/02/16 03:44:00;;;;;;;49.63;27.17;;;4.50;99.90;;;;;;4986032;28;20034;-73
2023/02/16 03:46:25;;;;;;;53.80;28.95;;;4.50;99.90;;;;;;4996406;28;20022;-72
2023/02/16 03:48:51;;;;;;;53.67;28.05;;;4.50;99.90;;;;;;4997675;28;20038;-72
2023/02/16 03:51:17;;;;;;;53.83;27.10;;;4.50;99.90;;;;;;4976857;28;20038;-72
2023/02/16 03:53:42;;;;;;;56.05;27.02;;;4.50;99.90;;;;;;4980301;28;20071;-72
2023/02/16 03:56:08;;;;;;;49.58;27.17;;;4.50;99.90;;;;;;5000676;28;20033;-72
2023/02/16 03:58:34;;;;;;;51.15;27.52;;;4.40;99.90;;;;;;4999594;28;20053;-71
2023/02/16 04:01:00;;;;;;;50.05;27.00;;;4.40;99.90;;;;;;4979190;28;20040;-72
2023/02/16 04:03:26;;;;;;;45.65;24.98;;;4.40;99.90;;;;;;4979491;28;20498;-72
2023/02/16 04:05:52;;;;;;;48.80;26.23;;;4.40;99.90;;;;;;4996181;28;20494;-72
2023/02/16 04:08:17;;;;;;;51.17;26.83;;;4.40;99.90;;;;;;4978551;28;20033;-72
2023/02/16 04:10:43;;;;;;;49.78;26.02;;;4.40;99.90;;;;;;4994878;28;20482;-72
2023/02/16 04:13:09;;;;;;;51.00;26.27;;;4.40;99.90;;;;;;4994895;28;20034;-71
2023/02/16 04:15:34;;;;;;;50.30;27.33;;;4.40;99.90;;;;;;4995542;28;20041;-72
2023/02/16 04:18:00;;;;;;;49.58;27.02;;;4.40;99.90;;;;;;4979731;28;20120;-72
2023/02/16 04:20:29;;;;;;;46.30;27.00;;;4.40;99.90;;;;;;4972528;28;20410;-72
2023/02/16 04:22:55;;;;;;;49.40;26.75;;;4.40;99.90;;;;;;4993656;28;20039;-72
2023/02/16 04:25:21;;;;;;;49.80;26.67;;;4.40;99.90;;;;;;4976768;28;20042;-71
2023/02/16 04:27:47;;;;;;;51.13;27.30;;;4.40;99.90;;;;;;4974285;28;20629;-72
2023/02/16 04:30:17;;;;;;;53.80;27.35;;;4.40;99.90;;;;;;4978600;28;20079;-72
2023/02/16 04:32:43;;;;;;;55.45;28.23;;;4.40;99.90;;;;;;4973792;28;20018;-72
2023/02/16 04:35:09;;;;;;;56.13;27.92;;;4.40;99.90;;;;;;4977501;28;20401;-71
2023/02/16 04:37:35;;;;;;;47.05;25.40;;;4.40;99.90;;;;;;4994726;28;20525;-71
2023/02/16 04:40:00;;;;;;;49.35;25.83;;;4.40;99.90;;;;;;4991231;28;20029;-71
2023/02/16 04:42:26;;;;;;;49.65;26.33;;;4.40;99.90;;;;;;4988728;28;20030;-71
2023/02/16 04:44:52;;;;;;;47.58;25.33;;;4.30;99.90;;;;;;4977259;28;20018;-71
2023/02/16 04:47:18;;;;;;;50.33;26.27;;;4.40;99.90;;;;;;4972656;28;20101;-71
2023/02/16 04:49:45;;;;;;;47.17;26.73;;;4.40;99.90;;;;;;4977111;28;20617;-72
2023/02/16 04:52:12;;;;;;;51.20;25.75;;;4.40;99.90;;;;;;4971164;28;20112;-70
2023/02/16 04:54:38;;;;;;;49.05;26.40;;;4.40;99.90;;;;;;4974756;28;20022;-72
2023/02/16 04:57:04;;;;;;;48.30;25.27;;;4.40;99.90;;;;;;4979130;28;20109;-71
2023/02/16 04:59:30;;;;;;;49.30;25.55;;;4.40;99.90;;;;;;4977078;28;20046;-72
2023/02/16 05:01:56;;;;;;;49.40;26.23;;;4.40;99.90;;;;;;4997810;28;20030;-72
2023/02/16 05:04:23;;;;;;;52.03;27.02;;;4.40;99.90;;;;;;4998558;28;20083;-71
2023/02/16 05:06:49;;;;;;;51.67;26.85;;;4.40;99.90;;;;;;5006299;28;20038;-72
2023/02/16 05:09:14;;;;;;;50.33;26.27;;;4.40;99.90;;;;;;4979512;28;20037;-71
2023/02/16 05:14:46;;;;;;;44.13;24.50;;;4.40;99.90;;;;;;4978081;28;20056;-72
2023/02/16 05:17:18;;;;;;;47.40;24.20;;;4.40;99.90;;;;;;4993243;28;20743;-71
2023/02/16 05:19:47;;;;;;;51.55;26.70;;;4.40;99.90;;;;;;4975678;28;20074;-72
2023/02/16 05:22:14;;;;;;;53.72;26.17;;;4.40;99.90;;;;;;4965576;28;20034;-72
2023/02/16 05:24:40;;;;;;;49.88;25.40;;;4.40;99.90;;;;;;4973636;28;20117;-72
2023/02/16 05:27:10;;;;;;;45.53;25.75;;;4.40;99.90;;;;;;4974804;28;20775;-72
2023/02/16 05:29:36;;;;;;;51.85;25.52;;;4.40;99.90;;;;;;4958258;28;20045;-70
2023/02/16 05:32:01;;;;;;;49.70;25.65;;;4.30;99.90;;;;;;4973450;28;20026;-73
2023/02/16 05:34:27;;;;;;;46.30;24.90;;;4.30;99.90;;;;;;4995011;28;20044;-70
2023/02/16 05:36:54;;;;;;;52.20;25.92;;;4.40;99.90;;;;;;4995946;28;20034;-72
2023/02/16 05:39:20;;;;;;;47.53;24.83;;;4.40;99.90;;;;;;4982134;28;20034;-72
2023/02/16 05:41:46;;;;;;;48.80;26.65;;;4.40;99.90;;;;;;4958789;28;20085;-71
2023/02/16 05:44:12;;;;;;;47.58;24.70;;;4.40;99.90;;;;;;4959394;28;20042;-72
2023/02/16 05:46:39;;;;;;;50.25;25.10;;;4.40;99.90;;;;;;4991691;28;20037;-71
2023/02/16 05:49:06;;;;;;;43.00;25.27;;;4.40;99.90;;;;;;4972907;28;20513;-72
2023/02/16 05:51:32;;;;;;;49.10;25.08;;;4.30;99.90;;;;;;4979376;28;20027;-72
2023/02/16 05:53:58;;;;;;;47.13;25.90;;;4.40;99.90;;;;;;4974142;28;20022;-71
2023/02/16 05:56:25;;;;;;;42.35;24.10;;;4.30;99.90;;;;;;4990310;28;20034;-71
2023/02/16 05:58:52;;;;;;;52.08;26.83;;;4.30;99.90;;;;;;4981427;28;20072;-72
2023/02/16 06:01:18;;;;;;;50.75;26.95;;;4.30;99.90;;;;;;4991575;28;20037;-72
2023/02/16 06:03:44;;;;;;;46.83;24.55;;;4.30;99.90;;;;;;4995474;28;20030;-71
2023/02/16 06:06:10;;;;;;;45.90;25.70;;;4.30;99.90;;;;;;4980444;28;20037;-71
2023/02/16 06:08:36;;;;;;;51.45;27.58;;;4.30;99.90;;;;;;4993208;28;20060;-73
2023/02/16 06:11:05;;;;;;;51.72;26.23;;;4.30;99.90;;;;;;4990393;28;20026;-72
2023/02/16 06:13:32;;;;;;;52.67;26.77;;;4.30;99.90;;;;;;4988480;28;20058;-73
2023/02/16 06:15:58;;;;;;;48.22;25.88;;;4.30;99.90;;;;;;4976648;28;20588;-72
2023/02/16 06:18:24;;;;;;;57.17;27.17;;;4.40;99.90;;;;;;4982905;28;20046;-74
2023/02/16 06:20:50;;;;;;;51.92;26.63;;;4.40;99.90;;;;;;4989426;28;20049;-73
2023/02/16 06:23:16;;;;;;;52.60;27.05;;;4.40;99.90;;;;;;4987465;28;20042;-72
2023/02/16 06:25:43;;;;;;;52.72;27.42;;;4.40;99.90;;;;;;4988497;28;20038;-72
2023/02/16 06:28:09;;;;;;;49.22;26.77;;;4.40;99.90;;;;;;4981074;28;20027;-72
2023/02/16 06:30:35;;;;;;;47.58;26.85;;;4.40;99.90;;;;;;4955523;28;20080;-74
2023/02/16 06:33:02;;;;;;;56.30;28.45;;;4.40;99.90;;;;;;4996992;28;20045;-72
2023/02/16 06:35:28;;;;;;;58.17;30.17;;;4.40;99.90;;;;;;4996438;28;20093;-73
2023/02/16 06:37:54;;;;;;;49.90;26.85;;;4.40;99.90;;;;;;5001195;28;20172;-73
2023/02/16 06:40:20;;;;;;;63.92;29.67;;;4.50;99.90;;;;;;4998247;28;20116;-73
2023/02/16 06:42:46;;;;;;;58.42;28.27;;;4.50;99.90;;;;;;4973150;28;20099;-73
2023/02/16 06:45:11;;;;;;;50.38;26.48;;;4.50;99.90;;;;;;4978258;28;20042;-71
2023/02/16 06:47:37;;;;;;;54.63;27.83;;;4.50;99.90;;;;;;4974369;28;20038;-71
2023/02/16 06:50:08;;;;;;;52.38;27.80;;;4.50;99.90;;;;;;4995440;28;20026;-73
2023/02/16 06:52:34;;;;;;;50.00;27.08;;;4.50;99.90;;;;;;4974326;28;20034;-73
2023/02/16 06:55:00;;;;;;;53.47;28.20;;;4.50;99.90;;;;;;4967024;28;20558;-73
2023/02/16 06:57:26;;;;;;;54.33;28.55;;;4.50;99.90;;;;;;4970703;28;20101;-73
2023/02/16 06:59:51;;;;;;;52.38;28.10;;;4.50;99.90;;;;;;4991189;28;20077;-73
2023/02/16 07:02:17;;;;;;;54.03;27.95;;;4.60;99.90;;;;;;4990359;28;20160;-71
2023/02/16 07:04:43;;;;;;;54.85;28.50;;;4.60;99.90;;;;;;4972103;28;20033;-72
2023/02/16 07:07:09;;;;;;;56.10;29.17;;;4.60;99.90;;;;;;4984001;28;20494;-72
2023/02/16 07:09:38;;;;;;;53.15;28.52;;;4.60;99.90;;;;;;4962192;28;20026;-68
2023/02/16 07:12:04;;;;;;;57.88;29.10;;;4.70;99.90;;;;;;4989679;28;20030;-72
2023/02/16 07:14:31;;;;;;;53.22;29.58;;;4.70;99.90;;;;;;4992335;28;20046;-73
2023/02/16 07:16:58;;;;;;;61.47;30.52;;;4.70;99.90;;;;;;4993075;28;20030;-73
2023/02/16 07:19:25;;;;;;;63.50;31.63;;;4.70;99.90;;;;;;4992747;28;20109;-74
2023/02/16 07:21:50;;;;;;;56.67;31.52;;;4.70;99.90;;;;;;4989204;28;20046;-73
2023/02/16 07:24:16;;;;;;;61.92;30.98;;;4.80;99.90;;;;;;4973880;28;20057;-73
2023/02/16 07:26:42;;;;;;;68.47;32.88;;;4.80;99.90;;;;;;4973278;28;20502;-73
2023/02/16 07:29:08;;;;;;;58.67;30.80;;;4.80;99.90;;;;;;4992113;28;20045;-73
2023/02/16 07:31:34;;;;;;;57.58;29.65;;;4.90;99.90;;;;;;4961208;28;20391;-73
2023/02/16 07:33:59;;;;;;;56.33;29.65;;;4.90;99.90;;;;;;4983049;28;20039;-73
2023/02/16 07:36:25;;;;;;;54.53;30.58;;;5.00;99.90;;;;;;4975629;28;20914;-73
2023/02/16 07:38:51;;;;;;;61.22;30.02;;;5.00;99.90;;;;;;4971233;28;20034;-72
2023/02/16 07:41:17;;;;;;;57.17;29.75;;;5.00;99.90;;;;;;4985839;28;20034;-72
2023/02/16 07:43:43;;;;;;;61.67;31.08;;;5.00;99.90;;;;;;4973974;28;20038;-73
2023/02/16 07:46:08;;;;;;;58.30;31.35;;;5.00;99.90;;;;;;4991428;28;20038;-73
2023/02/16 07:48:34;;;;;;;55.75;29.38;;;5.10;99.90;;;;;;4975252;28;20044;-71
2023/02/16 07:51:00;;;;;;;57.25;30.13;;;5.10;99.90;;;;;;4987060;28;20030;-74
2023/02/16 07:53:26;;;;;;;57.03;29.88;;;5.10;99.90;;;;;;4994399;28;20362;-74
2023/02/16 07:55:52;;;;;;;57.72;28.98;;;5.10;99.90;;;;;;4993888;28;20521;-73
2023/02/16 07:58:27;;;;;;;56.42;29.65;;;5.20;99.90;;;;;;4991365;28;20117;-74
2023/02/16 08:01:07;;;;;;;58.42;30.98;;;5.20;99.90;;;;;;4975102;28;20401;-73
2023/02/16 08:03:33;;;;;;;56.72;30.25;;;5.20;99.90;;;;;;4996117;28;20076;-73
2023/02/16 08:06:00;;;;;;;59.03;30.10;;;5.20;99.90;;;;;;4992151;28;20117;-73
2023/02/16 08:08:26;;;;;;;56.70;31.67;;;5.30;99.90;;;;;;4976967;28;20034;-72
2023/02/16 08:10:52;;;;;;;63.25;31.75;;;5.30;99.90;;;;;;4976137;28;20097;-73
2023/02/16 08:13:18;;;;;;;57.08;31.95;;;5.30;99.90;;;;;;4972761;28;20105;-73
2023/02/16 08:15:44;;;;;;;60.40;31.95;;;5.30;99.90;;;;;;4976193;28;20030;-73
2023/02/16 08:18:10;;;;;;;57.72;31.88;;;5.30;99.90;;;;;;4975557;28;20269;-73
2023/02/16 08:20:36;;;;;;;58.05;32.15;;;5.40;99.90;;;;;;4976505;28;20037;-73
2023/02/16 08:23:02;;;;;;;58.38;31.77;;;5.40;99.90;;;;;;4995560;28;20395;-73
2023/02/16 08:25:28;;;;;;;53.28;29.65;;;5.40;99.90;;;;;;4961255;28;20038;-73
2023/02/16 08:27:54;;;;;;;56.92;30.58;;;5.40;99.90;;;;;;4976192;28;20037;-69
2023/02/16 08:30:23;;;;;;;56.65;30.45;;;5.50;99.90;;;;;;4988985;28;20576;-72
2023/02/16 08:32:52;;;;;;;55.30;29.95;;;5.60;99.90;;;;;;4975734;28;20310;-73
2023/02/16 08:35:17;;;;;;;51.78;29.42;;;5.60;99.90;;;;;;5000132;28;20034;-72
2023/02/16 08:37:43;;;;;;;59.22;30.70;;;5.70;99.90;;;;;;4999409;28;20375;-73
2023/02/16 08:40:09;;;;;;;57.60;31.88;;;5.70;99.90;;;;;;4982254;28;20515;-73
2023/02/16 08:42:36;;;;;;;54.20;31.10;;;5.80;99.90;;;;;;4981989;28;20022;-74
2023/02/16 08:45:03;;;;;;;55.67;31.30;;;5.80;99.90;;;;;;4994406;28;20450;-73
2023/02/16 08:47:29;;;;;;;54.33;30.27;;;5.80;99.90;;;;;;4979690;28;20037;-72
2023/02/16 08:49:55;;;;;;;57.17;31.55;;;5.80;99.90;;;;;;4979771;28;20549;-75
2023/02/16 08:52:21;;;;;;;57.47;30.38;;;5.80;99.90;;;;;;4979816;28;20061;-71
2023/02/16 08:54:47;;;;;;;59.60;31.75;;;5.90;99.90;;;;;;4974145;28;20080;-73
2023/02/16 08:57:13;;;;;;;59.97;31.33;;;5.90;99.90;;;;;;4992916;28;20593;-74
2023/02/16 08:59:40;;;;;;;49.75;29.42;;;5.90;99.90;;;;;;4975687;28;20023;-74
2023/02/16 09:02:06;;;;;;;54.03;29.50;;;6.00;99.90;;;;;;4973970;28;20034;-74
2023/02/16 09:04:32;;;;;;;57.17;31.27;;;6.00;99.90;;;;;;4994211;28;20026;-74
2023/02/16 09:06:59;;;;;;;61.45;31.98;;;6.10;99.90;;;;;;4989238;28;20034;-73
2023/02/16 09:09:25;;;;;;;59.30;31.05;;;6.10;99.90;;;;;;4991487;28;20026;-71
2023/02/16 09:11:51;;;;;;;55.33;31.48;;;6.10;99.90;;;;;;4975170;28;20041;-73
2023/02/16 09:14:18;;;;;;;54.03;30.95;;;6.10;99.90;;;;;;4974161;28;20046;-73
2023/02/16 09:16:45;;;;;;;59.38;32.70;;;6.20;99.90;;;;;;4979018;28;20036;-73
2023/02/16 09:19:16;;;;;;;58.58;31.42;;;6.20;99.90;;;;;;4972841;28;20045;-73
2023/02/16 09:21:43;;;;;;;56.58;30.98;;;6.20;99.90;;;;;;4976197;28;20034;-74
2023/02/16 09:24:10;;;;;;;53.78;30.23;;;6.20;99.90;;;;;;4978923;28;20030;-73
2023/02/16 09:26:37;;;;;;;50.83;30.08;;;6.20;99.90;;;;;;4977054;28;20022;-73
2023/02/16 09:29:05;;;;;;;56.83;31.55;;;6.30;99.90;;;;;;4977831;28;20049;-73
2023/02/16 09:31:34;;;;;;;54.53;31.08;;;6.30;99.90;;;;;;4999320;28;20108;-74
2023/02/16 09:34:04;;;;;;;55.53;32.30;;;6.30;99.90;;;;;;4979532;28;20565;-73
2023/02/16 09:36:32;;;;;;;59.00;31.23;;;6.40;99.90;;;;;;4973070;28;20045;-73
2023/02/16 09:38:59;;;;;;;57.10;30.92;;;6.30;99.90;;;;;;4991714;28;20039;-73
2023/02/16 09:41:30;;;;;;;57.40;30.80;;;6.30;99.90;;;;;;4978688;28;20029;-74
2023/02/16 09:44:08;;;;;;;52.80;30.83;;;6.20;99.90;;;;;;4997712;28;20620;-73
2023/02/16 09:46:36;;;;;;;52.78;31.27;;;6.30;99.90;;;;;;4993040;28;20034;-74
2023/02/16 09:49:03;;;;;;;59.70;32.03;;;6.30;99.90;;;;;;4957634;28;20149;-73
2023/02/16 09:51:36;;;;;;;58.38;30.98;;;6.30;99.90;;;;;;4997206;28;20502;-71
2023/02/16 09:54:33;;;;;;;53.65;29.55;;;6.30;99.90;;;;;;4996849;28;20437;-73
2023/02/16 09:57:12;;;;;;;54.72;30.02;;;6.40;99.90;;;;;;4989453;28;20038;-73
2023/02/16 09:59:50;;;;;;;56.13;30.50;;;6.40;99.90;;;;;;4973838;28;20026;-72
2023/02/16 10:02:37;;;;;;;59.50;31.85;;;6.50;99.90;;;;;;4972061;28;20109;-71
2023/02/16 10:05:12;;;;;;;54.95;30.83;;;6.60;99.90;;;;;;4974367;28;20026;-72
2023/02/16 10:07:44;;;;;;;54.00;29.95;;;6.80;99.90;;;;;;4978951;28;20026;-73
2023/02/16 10:10:16;;;;;;;50.70;30.42;;;7.00;99.90;;;;;;4990106;28;20030;-73
2023/02/16 10:13:08;;;;;;;55.97;31.83;;;7.00;99.90;;;;;;4960108;28;20117;-74
2023/02/16 10:15:37;;;;;;;58.70;32.55;;;7.00;99.90;;;;;;4944604;28;20142;-73
2023/02/16 10:18:14;;;;;;;58.03;32.65;;;7.00;99.90;;;;;;4961124;28;20034;-73
2023/02/16 10:20:44;;;;;;;57.63;31.40;;;7.00;99.90;;;;;;4977216;28;20351;-73
2023/02/16 10:23:36;;;;;;;56.47;31.80;;;6.90;99.90;;;;;;4963820;28;20498;-73
2023/02/16 10:26:12;;;;;;;56.15;32.20;;;6.90;99.90;;;;;;4992866;28;20034;-73
2023/02/16 10:28:54;;;;;;;56.28;31.15;;;6.90;99.90;;;;;;4975403;28;20911;-72
2023/02/16 10:31:29;;;;;;;57.25;31.92;;;6.90;99.90;;;;;;4974699;28;20297;-73
2023/02/16 10:34:28;;;;;;;58.85;31.98;;;6.90;99.90;;;;;;4996347;28;20276;-73
2023/02/16 10:37:03;;;;;;;61.80;31.55;;;7.00;99.90;;;;;;4995119;28;20034;-72
2023/02/16 10:40:01;;;;;;;53.65;32.35;;;7.00;99.90;;;;;;4980176;28;20109;-73
2023/02/16 10:42:55;;;;;;;60.00;32.70;;;7.10;99.90;;;;;;4997110;28;20042;-72
2023/02/16 10:45:27;;;;;;;53.92;30.90;;;7.10;99.90;;;;;;4989921;28;20061;-73
2023/02/16 10:47:53;;;;;;;60.03;32.58;;;7.10;99.90;;;;;;4979962;28;20022;-73
2023/02/16 10:50:27;;;;;;;55.00;31.38;;;7.10;99.90;;;;;;4972895;28;20026;-73
2023/02/16 10:52:59;;;;;;;60.17;34.08;;;7.10;99.90;;;;;;4993159;28;20033;-72
2023/02/16 10:55:25;;;;;;;55.13;31.92;;;7.10;99.90;;;;;;4972903;28;20053;-72
2023/02/16 10:57:59;;;;;;;57.55;31.95;;;7.20;99.90;;;;;;4958335;28;20104;-72
2023/02/16 11:01:13;;;;;;;54.75;32.67;;;7.30;99.90;;;;;;4973997;28;20064;-72
2023/02/16 11:03:45;;;;;;;52.42;30.88;;;7.30;99.90;;;;;;4942144;28;20038;-73
2023/02/16 11:06:17;;;;;;;63.08;33.05;;;7.40;99.90;;;;;;4936675;28;20103;-72
2023/02/16 11:08:55;;;;;;;56.05;32.45;;;7.40;99.90;;;;;;4946249;28;20040;-73
2023/02/16 11:11:24;;;;;;;54.90;31.70;;;7.40;99.90;;;;;;4945845;28;20059;-73
2023/02/16 11:14:04;;;;;;;56.08;32.15;;;7.60;99.90;;;;;;4927281;28;20028;-73
2023/02/16 11:16:30;;;;;;;57.23;31.17;;;7.70;99.90;;;;;;4926816;28;20101;-72
2023/02/16 11:19:00;;;;;;;57.38;31.73;;;7.80;99.90;;;;;;4941648;28;20839;-72
2023/02/16 11:21:50;;;;;;;55.28;32.17;;;7.80;99.90;;;;;;4945316;28;20155;-72
2023/02/16 11:24:26;;;;;;;54.80;31.75;;;7.70;99.90;;;;;;4932058;28;20042;-73
2023/02/16 11:27:15;;;;;;;57.30;33.28;;;7.70;99.90;;;;;;4944489;28;20027;-73
2023/02/16 11:29:40;;;;;;;58.10;33.35;;;7.70;99.90;;;;;;4928810;28;20027;-73
2023/02/16 11:32:09;;;;;;;54.58;32.50;;;7.70;99.90;;;;;;4944329;28;20195;-73
2023/02/16 11:34:47;;;;;;;57.67;33.35;;;7.60;99.90;;;;;;4965272;28;20038;-73
2023/02/16 11:37:26;;;;;;;57.03;33.22;;;7.60;99.90;;;;;;4973740;28;20038;-73
2023/02/16 11:40:03;;;;;;;53.42;32.53;;;7.70;99.90;;;;;;4958094;28;20045;-73
2023/02/16 11:42:32;;;;;;;58.60;33.80;;;7.70;99.90;;;;;;4974785;28;20069;-73
2023/02/16 11:45:00;;;;;;;68.22;35.40;;;7.60;99.90;;;;;;4994829;28;20046;-72
2023/02/16 11:47:33;;;;;;;62.83;34.67;;;7.60;99.90;;;;;;4993646;28;20058;-72
2023/02/16 11:50:22;;;;;;;67.25;36.35;;;7.60;99.90;;;;;;4974375;28;20053;-73
2023/02/16 11:52:53;;;;;;;61.13;34.53;;;7.70;99.90;;;;;;4973635;28;20026;-73
2023/02/16 11:55:22;;;;;;;;;;;7.70;99.90;;;;;;4959225;28;20026;-74
2023/02/16 11:57:48;;;;;;;61.92;32.75;;;7.70;99.90;;;;;;4991854;28;19916;-74
2023/02/16 12:00:22;;;;;;;60.22;34.45;;;7.70;99.90;;;;;;4996426;28;20042;-76
2023/02/16 12:03:08;;;;;;;66.50;35.85;;;7.70;99.90;;;;;;4979900;28;20094;-73
2023/02/16 12:05:58;;;;;;;61.35;34.70;;;7.70;99.90;;;;;;4977053;28;20065;-74
2023/02/16 12:08:46;;;;;;;64.50;34.95;;;7.70;99.90;;;;;;5001200;28;20042;-73
2023/02/16 12:11:38;;;;;;;63.55;33.35;;;7.70;99.90;;;;;;4997097;28;20035;-73
2023/02/16 12:14:14;;;;;;;63.58;35.35;;;7.70;99.90;;;;;;4962503;28;20120;-73
2023/02/16 12:16:49;;;;;;;67.18;34.65;;;7.70;99.90;;;;;;4981471;28;20060;-72
2023/02/16 12:19:30;;;;;;;66.82;36.55;;;7.70;99.90;;;;;;4981143;28;20121;-73
2023/02/16 12:22:15;;;;;;;;;;;7.70;99.90;;;;;;4999566;28;20105;-72
2023/02/16 12:25:06;;;;;;;67.60;34.63;;;7.70;99.90;;;;;;4995407;28;19913;-73
2023/02/16 12:27:44;;;;;;;63.25;33.38;;;7.70;99.90;;;;;;4997202;28;20434;-70
2023/02/16 12:30:10;;;;;;;64.80;34.80;;;7.70;99.90;;;;;;4979423;28;20034;-73
2023/02/16 12:33:10;;;;;;;72.20;38.00;;;7.80;99.90;;;;;;4991641;28;20080;-73
2023/02/16 12:35:41;;;;;;;70.23;37.10;;;7.80;99.90;;;;;;4964902;28;20430;-73
2023/02/16 12:38:16;;;;;;;68.53;37.58;;;7.70;99.90;;;;;;4963020;28;20026;-74
2023/02/16 12:41:03;;;;;;;71.13;37.13;;;7.80;99.90;;;;;;4983746;28;20437;-74
2023/02/16 12:43:44;;;;;;;70.57;36.42;;;7.80;99.90;;;;;;4975276;28;20030;-74
2023/02/16 12:46:36;;;;;;;61.65;35.40;;;7.80;99.90;;;;;;4960493;28;20041;-74
2023/02/16 12:49:20;;;;;;;71.18;38.22;;;7.80;99.90;;;;;;4961010;28;20479;-74
2023/02/16 12:51:52;;;;;;;74.68;40.78;;;7.70;99.90;;;;;;4960559;28;20386;-71
2023/02/16 12:54:39;;;;;;;71.75;38.72;;;7.70;99.90;;;;;;4979569;28;20023;-72
2023/02/16 12:57:13;;;;;;;86.45;41.38;;;7.70;99.90;;;;;;4979312;28;20050;-73
2023/02/16 13:00:16;;;;;;;71.65;39.30;;;7.80;99.90;;;;;;4997115;28;20340;-73
2023/02/16 13:02:49;;;;;;;78.25;38.25;;;7.80;99.90;;;;;;4960691;28;20169;-73
2023/02/16 13:05:18;;;;;;;81.30;40.78;;;7.80;99.90;;;;;;4976335;28;20029;-73
2023/02/16 13:07:46;;;;;;;84.55;40.67;;;7.90;99.90;;;;;;4993664;28;20157;-73
2023/02/16 13:10:24;;;;;;;90.15;38.95;;;7.90;99.90;;;;;;4976908;28;20156;-73
2023/02/16 13:13:07;;;;;;;589.92;329.85;;;7.90;99.90;;;;;;4997380;28;20146;-73
2023/02/16 13:15:38;;;;;;;105.30;55.03;;;8.00;99.90;;;;;;4980577;28;20044;-73
2023/02/16 13:18:27;;;;;;;211.75;134.32;;;8.00;99.90;;;;;;4968211;28;20041;-73
2023/02/16 13:21:23;;;;;;;78.65;41.28;;;8.00;99.90;;;;;;4978559;28;20406;-73
2023/02/16 13:24:28;;;;;;;76.45;40.60;;;8.00;99.90;;;;;;4969095;28;20142;-73
2023/02/16 13:27:11;;;;;;;79.35;39.95;;;8.00;99.90;;;;;;4947868;28;20046;-73
2023/02/16 13:29:53;;;;;;;69.78;36.85;;;8.00;99.90;;;;;;4992600;28;20035;-73
2023/02/16 13:32:37;;;;;;;77.20;41.10;;;8.00;99.90;;;;;;4996697;28;20363;-73
2023/02/16 13:35:07;;;;;;;72.13;38.72;;;7.90;99.90;;;;;;4994393;28;20030;-72
2023/02/16 13:37:57;;;;;;;83.07;40.33;;;8.00;99.90;;;;;;4993141;28;20029;-73
2023/02/16 13:41:09;;;;;;;75.28;40.33;;;8.00;99.90;;;;;;4991065;28;20661;-72